sensor_id;sensor_type;location;lat;lon;timestamp;pressure;altitude;pressure_sealevel;temperature
77599;BMP280;66758;52.078;5.070;2023-08-20T00:01:31;98796.69;;;20.17
77599;BMP280;66758;52.078;5.070;2023-08-20T00:03:57;98803.78;;;20.18
77599;BMP280;66758;52.078;5.070;2023-08-20T00:06:23;98803.44;;;20.25
77599;BMP280;66758;52.078;5.070;2023-08-20T00:08:49;98812.53;;;20.26
77599;BMP280;66758;52.078;5.070;2023-08-20T00:11:14;98822.31;;;20.21
77599;BMP280;66758;52.078;5.070;2023-08-20T00:13:40;98841.34;;;20.14
77599;BMP280;66758;52.078;5.070;2023-08-20T00:16:06;98848.63;;;20.11
77599;BMP280;66758;52.078;5.070;2023-08-20T00:18:32;98836.81;;;20.25
77599;BMP280;66758;52.078;5.070;2023-08-20T00:20:58;98852.25;;;20.27
77599;BMP280;66758;52.078;5.070;2023-08-20T00:23:25;98869.16;;;20.14
77599;BMP280;66758;52.078;5.070;2023-08-20T00:25:51;98871.44;;;20.24
77599;BMP280;66758;52.078;5.070;2023-08-20T00:28:16;98910.06;;;20.13
77599;BMP280;66758;52.078;5.070;2023-08-20T00:30:42;98976.19;;;20.09
77599;BMP280;66758;52.078;5.070;2023-08-20T00:33:07;99302.22;;;20.10
77599;BMP280;66758;52.078;5.070;2023-08-20T00:35:32;99694.03;;;20.04
77599;BMP280;66758;52.078;5.070;2023-08-20T00:37:58;100110.06;;;20.14
77599;BMP280;66758;52.078;5.070;2023-08-20T00:40:23;100294.81;;;20.30
77599;BMP280;66758;52.078;5.070;2023-08-20T00:42:49;100356.63;;;20.21
77599;BMP280;66758;52.078;5.070;2023-08-20T00:45:14;100584.91;;;19.94
77599;BMP280;66758;52.078;5.070;2023-08-20T00:47:41;101052.75;;;20.05
77599;BMP280;66758;52.078;5.070;2023-08-20T00:50:07;101315.91;;;19.99
77599;BMP280;66758;52.078;5.070;2023-08-20T00:52:34;101498.72;;;19.95
77599;BMP280;66758;52.078;5.070;2023-08-20T00:55:00;101701.41;;;19.83
77599;BMP280;66758;52.078;5.070;2023-08-20T00:57:29;102018.91;;;19.92
77599;BMP280;66758;52.078;5.070;2023-08-20T00:59:54;102254.13;;;19.82
77599;BMP280;66758;52.078;5.070;2023-08-20T01:02:21;102461.22;;;19.85
77599;BMP280;66758;52.078;5.070;2023-08-20T01:04:47;102628.13;;;19.81
77599;BMP280;66758;52.078;5.070;2023-08-20T01:10:42;102749.00;;;19.87
77599;BMP280;66758;52.078;5.070;2023-08-20T01:13:11;102738.63;;;20.10
77599;BMP280;66758;52.078;5.070;2023-08-20T01:15:36;102757.38;;;19.87
77599;BMP280;66758;52.078;5.070;2023-08-20T01:18:02;102778.72;;;19.79
77599;BMP280;66758;52.078;5.070;2023-08-20T01:20:35;102796.53;;;19.75
77599;BMP280;66758;52.078;5.070;2023-08-20T01:28:46;102841.09;;;19.56
77599;BMP280;66758;52.078;5.070;2023-08-20T01:31:12;102867.47;;;19.43
77599;BMP280;66758;52.078;5.070;2023-08-20T01:33:38;102909.91;;;19.40
77599;BMP280;66758;52.078;5.070;2023-08-20T01:36:07;102961.06;;;19.35
77599;BMP280;66758;52.078;5.070;2023-08-20T01:38:35;102985.13;;;19.27
77599;BMP280;66758;52.078;5.070;2023-08-20T01:41:01;103004.78;;;19.19
77599;BMP280;66758;52.078;5.070;2023-08-20T01:43:27;103013.06;;;19.15
77599;BMP280;66758;52.078;5.070;2023-08-20T01:45:52;102999.84;;;19.28
77599;BMP280;66758;52.078;5.070;2023-08-20T01:48:18;103002.97;;;19.26
77599;BMP280;66758;52.078;5.070;2023-08-20T01:50:43;102997.97;;;19.16
77599;BMP280;66758;52.078;5.070;2023-08-20T01:53:10;102995.91;;;19.29
77599;BMP280;66758;52.078;5.070;2023-08-20T01:55:36;102994.81;;;19.33
77599;BMP280;66758;52.078;5.070;2023-08-20T01:58:01;102989.25;;;19.33
77599;BMP280;66758;52.078;5.070;2023-08-20T02:00:27;102983.53;;;19.46
77599;BMP280;66758;52.078;5.070;2023-08-20T02:02:53;102982.19;;;19.40
77599;BMP280;66758;52.078;5.070;2023-08-20T02:05:19;102995.38;;;19.23
77599;BMP280;66758;52.078;5.070;2023-08-20T02:07:44;103006.63;;;19.11
77599;BMP280;66758;52.078;5.070;2023-08-20T02:10:10;103029.13;;;18.91
77599;BMP280;66758;52.078;5.070;2023-08-20T02:12:35;103021.06;;;18.85
77599;BMP280;66758;52.078;5.070;2023-08-20T02:15:01;103006.81;;;18.87
77599;BMP280;66758;52.078;5.070;2023-08-20T02:17:27;102993.75;;;18.87
77599;BMP280;66758;52.078;5.070;2023-08-20T02:19:52;102985.41;;;18.87
77599;BMP280;66758;52.078;5.070;2023-08-20T02:22:19;102973.50;;;18.87
77599;BMP280;66758;52.078;5.070;2023-08-20T02:24:46;102966.31;;;18.86
77599;BMP280;66758;52.078;5.070;2023-08-20T02:27:11;102949.72;;;18.89
77599;BMP280;66758;52.078;5.070;2023-08-20T02:29:37;102942.44;;;19.01
77599;BMP280;66758;52.078;5.070;2023-08-20T02:32:02;102939.13;;;18.95
77599;BMP280;66758;52.078;5.070;2023-08-20T02:34:27;102924.22;;;19.03
77599;BMP280;66758;52.078;5.070;2023-08-20T02:36:53;102923.53;;;19.06
77599;BMP280;66758;52.078;5.070;2023-08-20T02:39:20;102930.72;;;18.92
77599;BMP280;66758;52.078;5.070;2023-08-20T02:41:45;102937.72;;;18.85
77599;BMP280;66758;52.078;5.070;2023-08-20T02:44:11;102945.72;;;18.71
77599;BMP280;66758;52.078;5.070;2023-08-20T02:46:36;102943.75;;;18.72
77599;BMP280;66758;52.078;5.070;2023-08-20T02:49:03;102934.19;;;18.69
77599;BMP280;66758;52.078;5.070;2023-08-20T02:51:29;102934.88;;;18.66
77599;BMP280;66758;52.078;5.070;2023-08-20T02:53:54;102933.91;;;18.59
77599;BMP280;66758;52.078;5.070;2023-08-20T02:56:19;102929.38;;;18.51
77599;BMP280;66758;52.078;5.070;2023-08-20T02:58:45;102917.00;;;18.48
77599;BMP280;66758;52.078;5.070;2023-08-20T03:01:21;102899.03;;;18.42
77599;BMP280;66758;52.078;5.070;2023-08-20T03:03:47;102887.53;;;18.43
77599;BMP280;66758;52.078;5.070;2023-08-20T03:06:12;102873.22;;;18.41
77599;BMP280;66758;52.078;5.070;2023-08-20T03:08:38;102855.56;;;18.50
77599;BMP280;66758;52.078;5.070;2023-08-20T03:11:04;102860.38;;;18.53
77599;BMP280;66758;52.078;5.070;2023-08-20T03:13:29;102844.97;;;18.55
77599;BMP280;66758;52.078;5.070;2023-08-20T03:15:54;102841.19;;;18.63
77599;BMP280;66758;52.078;5.070;2023-08-20T03:18:20;102823.16;;;18.73
77599;BMP280;66758;52.078;5.070;2023-08-20T03:20:45;102831.56;;;18.76
77599;BMP280;66758;52.078;5.070;2023-08-20T03:23:10;102832.44;;;18.80
77599;BMP280;66758;52.078;5.070;2023-08-20T03:25:36;102839.69;;;18.85
77599;BMP280;66758;52.078;5.070;2023-08-20T03:28:01;102830.19;;;18.86
77599;BMP280;66758;52.078;5.070;2023-08-20T03:30:27;102829.09;;;18.91
77599;BMP280;66758;52.078;5.070;2023-08-20T03:32:52;102847.13;;;18.81
77599;BMP280;66758;52.078;5.070;2023-08-20T03:35:19;102853.78;;;18.76
77599;BMP280;66758;52.078;5.070;2023-08-20T03:37:44;102863.81;;;18.81
77599;BMP280;66758;52.078;5.070;2023-08-20T03:40:10;102857.53;;;18.84
77599;BMP280;66758;52.078;5.070;2023-08-20T03:42:36;102870.72;;;18.71
77599;BMP280;66758;52.078;5.070;2023-08-20T03:45:01;102882.44;;;18.61
77599;BMP280;66758;52.078;5.070;2023-08-20T03:47:26;102885.38;;;18.53
77599;BMP280;66758;52.078;5.070;2023-08-20T03:49:52;102888.88;;;18.50
77599;BMP280;66758;52.078;5.070;2023-08-20T03:52:17;102895.34;;;18.38
77599;BMP280;66758;52.078;5.070;2023-08-20T03:54:43;102907.44;;;18.30
77599;BMP280;66758;52.078;5.070;2023-08-20T03:57:08;102898.28;;;18.29
77599;BMP280;66758;52.078;5.070;2023-08-20T03:59:33;102905.56;;;18.18
77599;BMP280;66758;52.078;5.070;2023-08-20T04:01:59;102900.28;;;18.13
77599;BMP280;66758;52.078;5.070;2023-08-20T04:04:24;102903.31;;;18.08
77599;BMP280;66758;52.078;5.070;2023-08-20T04:06:50;102883.16;;;18.11
77599;BMP280;66758;52.078;5.070;2023-08-20T04:09:16;102889.44;;;18.08
77599;BMP280;66758;52.078;5.070;2023-08-20T04:11:42;102897.56;;;18.01
77599;BMP280;66758;52.078;5.070;2023-08-20T04:14:07;102887.19;;;17.98
77599;BMP280;66758;52.078;5.070;2023-08-20T04:16:32;102886.72;;;17.96
77599;BMP280;66758;52.078;5.070;2023-08-20T04:18:58;102886.56;;;17.89
77599;BMP280;66758;52.078;5.070;2023-08-20T04:21:23;102884.50;;;17.86
77599;BMP280;66758;52.078;5.070;2023-08-20T04:23:49;102867.88;;;17.86
77599;BMP280;66758;52.078;5.070;2023-08-20T04:26:14;102854.44;;;17.88
77599;BMP280;66758;52.078;5.070;2023-08-20T04:28:39;102852.81;;;17.87
77599;BMP280;66758;52.078;5.070;2023-08-20T04:31:05;102861.47;;;17.70
77599;BMP280;66758;52.078;5.070;2023-08-20T04:33:30;102844.38;;;17.68
77599;BMP280;66758;52.078;5.070;2023-08-20T04:35:56;102833.03;;;17.73
77599;BMP280;66758;52.078;5.070;2023-08-20T04:38:21;102829.91;;;17.74
77599;BMP280;66758;52.078;5.070;2023-08-20T04:40:47;102827.22;;;17.78
77599;BMP280;66758;52.078;5.070;2023-08-20T04:43:13;102824.03;;;17.76
77599;BMP280;66758;52.078;5.070;2023-08-20T04:45:39;102830.81;;;17.78
77599;BMP280;66758;52.078;5.070;2023-08-20T04:48:04;102827.41;;;17.85
77599;BMP280;66758;52.078;5.070;2023-08-20T04:50:30;102819.09;;;17.85
77599;BMP280;66758;52.078;5.070;2023-08-20T04:52:55;102830.53;;;17.83
77599;BMP280;66758;52.078;5.070;2023-08-20T04:55:21;102829.72;;;17.83
77599;BMP280;66758;52.078;5.070;2023-08-20T04:57:46;102814.09;;;17.90
77599;BMP280;66758;52.078;5.070;2023-08-20T05:00:12;102817.28;;;17.92
77599;BMP280;66758;52.078;5.070;2023-08-20T05:02:37;102826.69;;;17.88
77599;BMP280;66758;52.078;5.070;2023-08-20T05:05:03;102848.72;;;17.81
77599;BMP280;66758;52.078;5.070;2023-08-20T05:07:28;102841.56;;;17.80
77599;BMP280;66758;52.078;5.070;2023-08-20T05:09:54;102837.63;;;17.81
77599;BMP280;66758;52.078;5.070;2023-08-20T05:12:19;102849.06;;;17.79
77599;BMP280;66758;52.078;5.070;2023-08-20T05:14:44;102841.63;;;17.83
77599;BMP280;66758;52.078;5.070;2023-08-20T05:17:10;102851.75;;;17.76
77599;BMP280;66758;52.078;5.070;2023-08-20T05:19:35;102842.63;;;17.75
77599;BMP280;66758;52.078;5.070;2023-08-20T05:22:01;102847.78;;;17.77
77599;BMP280;66758;52.078;5.070;2023-08-20T05:24:26;102839.94;;;17.79
77599;BMP280;66758;52.078;5.070;2023-08-20T05:27:07;102833.66;;;17.82
77599;BMP280;66758;52.078;5.070;2023-08-20T05:29:33;102831.50;;;17.91
77599;BMP280;66758;52.078;5.070;2023-08-20T05:31:59;102834.22;;;18.03
77599;BMP280;66758;52.078;5.070;2023-08-20T05:34:24;102846.56;;;17.90
77599;BMP280;66758;52.078;5.070;2023-08-20T05:36:50;102847.09;;;17.95
77599;BMP280;66758;52.078;5.070;2023-08-20T05:39:15;102844.22;;;17.92
77599;BMP280;66758;52.078;5.070;2023-08-20T05:41:41;102846.66;;;17.93
77599;BMP280;66758;52.078;5.070;2023-08-20T05:44:06;102840.03;;;17.98
77599;BMP280;66758;52.078;5.070;2023-08-20T05:46:32;102838.16;;;18.02
77599;BMP280;66758;52.078;5.070;2023-08-20T05:48:57;102822.19;;;18.15
77599;BMP280;66758;52.078;5.070;2023-08-20T05:51:22;102823.91;;;18.19
77599;BMP280;66758;52.078;5.070;2023-08-20T05:53:48;102820.84;;;18.24
77599;BMP280;66758;52.078;5.070;2023-08-20T05:56:13;102824.16;;;18.30
77599;BMP280;66758;52.078;5.070;2023-08-20T05:58:39;102814.75;;;18.34
77599;BMP280;66758;52.078;5.070;2023-08-20T06:01:04;102816.22;;;18.48
77599;BMP280;66758;52.078;5.070;2023-08-20T06:03:29;102809.25;;;18.54
77599;BMP280;66758;52.078;5.070;2023-08-20T06:05:57;102813.28;;;18.56
77599;BMP280;66758;52.078;5.070;2023-08-20T06:08:23;102811.16;;;18.69
77599;BMP280;66758;52.078;5.070;2023-08-20T06:10:50;102813.38;;;18.79
77599;BMP280;66758;52.078;5.070;2023-08-20T06:13:16;102813.81;;;18.81
77599;BMP280;66758;52.078;5.070;2023-08-20T06:15:41;102817.03;;;18.83
77599;BMP280;66758;52.078;5.070;2023-08-20T06:18:07;102809.56;;;18.87
77599;BMP280;66758;52.078;5.070;2023-08-20T06:20:32;102821.22;;;18.93
77599;BMP280;66758;52.078;5.070;2023-08-20T06:22:57;102816.88;;;18.95
77599;BMP280;66758;52.078;5.070;2023-08-20T06:25:23;102798.59;;;19.13
77599;BMP280;66758;52.078;5.070;2023-08-20T06:27:48;102803.41;;;19.16
77599;BMP280;66758;52.078;5.070;2023-08-20T06:30:14;102797.47;;;19.37
77599;BMP280;66758;52.078;5.070;2023-08-20T06:32:39;102815.78;;;19.19
77599;BMP280;66758;52.078;5.070;2023-08-20T06:35:05;102819.50;;;19.26
77599;BMP280;66758;52.078;5.070;2023-08-20T06:37:31;102819.75;;;19.41
77599;BMP280;66758;52.078;5.070;2023-08-20T06:39:56;102821.44;;;19.45
77599;BMP280;66758;52.078;5.070;2023-08-20T06:42:22;102803.44;;;19.62
77599;BMP280;66758;52.078;5.070;2023-08-20T06:44:47;102819.03;;;19.66
77599;BMP280;66758;52.078;5.070;2023-08-20T06:47:13;102817.16;;;19.74
77599;BMP280;66758;52.078;5.070;2023-08-20T06:49:40;102815.00;;;19.87
77599;BMP280;66758;52.078;5.070;2023-08-20T06:52:05;102825.66;;;19.81
77599;BMP280;66758;52.078;5.070;2023-08-20T06:54:31;102832.19;;;19.92
77599;BMP280;66758;52.078;5.070;2023-08-20T06:56:56;102819.69;;;20.05
77599;BMP280;66758;52.078;5.070;2023-08-20T06:59:21;102824.19;;;20.13
77599;BMP280;66758;52.078;5.070;2023-08-20T07:01:48;102813.25;;;20.28
77599;BMP280;66758;52.078;5.070;2023-08-20T07:04:13;102835.34;;;20.17
77599;BMP280;66758;52.078;5.070;2023-08-20T07:06:39;102843.84;;;20.24
77599;BMP280;66758;52.078;5.070;2023-08-20T07:09:05;102836.88;;;20.37
77599;BMP280;66758;52.078;5.070;2023-08-20T07:11:30;102832.38;;;20.59
77599;BMP280;66758;52.078;5.070;2023-08-20T07:13:55;102840.28;;;20.53
77599;BMP280;66758;52.078;5.070;2023-08-20T07:16:21;102843.19;;;20.64
77599;BMP280;66758;52.078;5.070;2023-08-20T07:18:46;102836.22;;;20.81
77599;BMP280;66758;52.078;5.070;2023-08-20T07:21:12;102855.34;;;20.82
77599;BMP280;66758;52.078;5.070;2023-08-20T07:23:37;102861.78;;;20.86
77599;BMP280;66758;52.078;5.070;2023-08-20T07:26:07;102846.03;;;21.01
77599;BMP280;66758;52.078;5.070;2023-08-20T07:28:33;102835.47;;;21.20
77599;BMP280;66758;52.078;5.070;2023-08-20T07:31:17;102843.13;;;21.27
77599;BMP280;66758;52.078;5.070;2023-08-20T07:33:49;102858.22;;;21.23
77599;BMP280;66758;52.078;5.070;2023-08-20T07:36:15;102855.97;;;21.35
77599;BMP280;66758;52.078;5.070;2023-08-20T07:38:40;102862.75;;;21.38
77599;BMP280;66758;52.078;5.070;2023-08-20T07:41:09;102860.19;;;21.59
77599;BMP280;66758;52.078;5.070;2023-08-20T07:43:37;102871.78;;;21.64
77599;BMP280;66758;52.078;5.070;2023-08-20T07:46:03;102863.97;;;21.84
77599;BMP280;66758;52.078;5.070;2023-08-20T07:48:29;102867.72;;;22.02
77599;BMP280;66758;52.078;5.070;2023-08-20T07:50:54;102904.94;;;21.70
77599;BMP280;66758;52.078;5.070;2023-08-20T07:53:20;102918.84;;;21.66
77599;BMP280;66758;52.078;5.070;2023-08-20T07:55:45;102920.56;;;21.78
77599;BMP280;66758;52.078;5.070;2023-08-20T07:58:11;102913.16;;;21.96
77599;BMP280;66758;52.078;5.070;2023-08-20T08:00:36;102915.59;;;22.04
77599;BMP280;66758;52.078;5.070;2023-08-20T08:03:02;102930.00;;;22.06
77599;BMP280;66758;52.078;5.070;2023-08-20T08:05:28;102920.53;;;22.22
77599;BMP280;66758;52.078;5.070;2023-08-20T08:07:53;102926.16;;;22.29
77599;BMP280;66758;52.078;5.070;2023-08-20T08:10:19;102917.91;;;22.50
77599;BMP280;66758;52.078;5.070;2023-08-20T08:12:44;102905.25;;;22.74
77599;BMP280;66758;52.078;5.070;2023-08-20T08:15:11;102923.53;;;22.53
77599;BMP280;66758;52.078;5.070;2023-08-20T08:17:36;102910.50;;;22.82
77599;BMP280;66758;52.078;5.070;2023-08-20T08:20:02;102899.78;;;22.95
77599;BMP280;66758;52.078;5.070;2023-08-20T08:22:28;102903.41;;;23.02
77599;BMP280;66758;52.078;5.070;2023-08-20T08:24:53;102869.00;;;22.91
77599;BMP280;66758;52.078;5.070;2023-08-20T08:27:19;102862.59;;;22.84
77599;BMP280;66758;52.078;5.070;2023-08-20T08:29:44;102863.47;;;23.13
77599;BMP280;66758;52.078;5.070;2023-08-20T08:32:10;102852.31;;;23.27
77599;BMP280;66758;52.078;5.070;2023-08-20T08:34:37;102853.13;;;23.52
77599;BMP280;66758;52.078;5.070;2023-08-20T08:37:02;102826.72;;;23.71
77599;BMP280;66758;52.078;5.070;2023-08-20T08:39:28;102797.53;;;23.72
77599;BMP280;66758;52.078;5.070;2023-08-20T08:41:59;102762.72;;;23.76
77599;BMP280;66758;52.078;5.070;2023-08-20T08:44:27;102738.66;;;24.00
77599;BMP280;66758;52.078;5.070;2023-08-20T08:46:54;102737.94;;;23.68
77599;BMP280;66758;52.078;5.070;2023-08-20T08:49:20;102758.34;;;23.65
77599;BMP280;66758;52.078;5.070;2023-08-20T08:51:46;102729.78;;;24.08
77599;BMP280;66758;52.078;5.070;2023-08-20T08:54:13;102674.34;;;24.48
77599;BMP280;66758;52.078;5.070;2023-08-20T08:56:39;102613.94;;;24.88
77599;BMP280;66758;52.078;5.070;2023-08-20T08:59:05;102561.72;;;25.31
77599;BMP280;66758;52.078;5.070;2023-08-20T09:01:31;100870.53;;;25.13
77599;BMP280;66758;52.078;5.070;2023-08-20T09:03:57;99163.25;;;25.02
77599;BMP280;66758;52.078;5.070;2023-08-20T09:06:22;100189.44;;;24.68
77599;BMP280;66758;52.078;5.070;2023-08-20T09:08:48;100454.31;;;25.15
77599;BMP280;66758;52.078;5.070;2023-08-20T09:11:13;100400.56;;;25.25
77599;BMP280;66758;52.078;5.070;2023-08-20T09:13:42;100641.59;;;25.29
77599;BMP280;66758;52.078;5.070;2023-08-20T09:16:12;100782.22;;;25.67
77599;BMP280;66758;52.078;5.070;2023-08-20T09:18:40;101001.53;;;25.87
77599;BMP280;66758;52.078;5.070;2023-08-20T09:21:11;101166.50;;;26.36
77599;BMP280;66758;52.078;5.070;2023-08-20T09:23:37;101403.59;;;26.51
77599;BMP280;66758;52.078;5.070;2023-08-20T09:26:06;101626.41;;;26.64
77599;BMP280;66758;52.078;5.070;2023-08-20T09:28:42;101906.03;;;25.41
77599;BMP280;66758;52.078;5.070;2023-08-20T09:31:09;102202.38;;;26.33
77599;BMP280;66758;52.078;5.070;2023-08-20T09:33:35;102132.22;;;26.30
77599;BMP280;66758;52.078;5.070;2023-08-20T09:36:03;102091.25;;;27.06
77599;BMP280;66758;52.078;5.070;2023-08-20T09:38:29;102178.00;;;27.07
77599;BMP280;66758;52.078;5.070;2023-08-20T09:40:55;102207.75;;;27.08
77599;BMP280;66758;52.078;5.070;2023-08-20T09:43:29;102279.47;;;27.33
77599;BMP280;66758;52.078;5.070;2023-08-20T09:45:59;102298.53;;;27.57
77599;BMP280;66758;52.078;5.070;2023-08-20T09:48:33;102329.41;;;28.18
77599;BMP280;66758;52.078;5.070;2023-08-20T09:51:04;102370.91;;;27.28
77599;BMP280;66758;52.078;5.070;2023-08-20T09:53:45;102359.44;;;27.51
77599;BMP280;66758;52.078;5.070;2023-08-20T09:56:28;102397.81;;;27.45
77599;BMP280;66758;52.078;5.070;2023-08-20T09:58:55;102376.69;;;26.69
77599;BMP280;66758;52.078;5.070;2023-08-20T10:01:23;102425.31;;;28.44
77599;BMP280;66758;52.078;5.070;2023-08-20T10:03:48;102419.88;;;27.79
77599;BMP280;66758;52.078;5.070;2023-08-20T10:06:14;102389.63;;;26.27
77599;BMP280;66758;52.078;5.070;2023-08-20T10:08:40;102430.81;;;27.29
77599;BMP280;66758;52.078;5.070;2023-08-20T10:11:05;102411.31;;;26.27
77599;BMP280;66758;52.078;5.070;2023-08-20T10:13:32;102427.03;;;26.24
77599;BMP280;66758;52.078;5.070;2023-08-20T10:15:57;102423.81;;;26.65
77599;BMP280;66758;52.078;5.070;2023-08-20T10:18:23;102452.06;;;27.94
77599;BMP280;66758;52.078;5.070;2023-08-20T10:20:50;102456.91;;;29.43
77599;BMP280;66758;52.078;5.070;2023-08-20T10:23:20;102452.84;;;28.94
77599;BMP280;66758;52.078;5.070;2023-08-20T10:25:48;102446.31;;;28.43
77599;BMP280;66758;52.078;5.070;2023-08-20T10:28:20;102464.31;;;29.62
77599;BMP280;66758;52.078;5.070;2023-08-20T10:31:15;102457.25;;;29.20
77599;BMP280;66758;52.078;5.070;2023-08-20T10:36:18;102458.59;;;29.03
77599;BMP280;66758;52.078;5.070;2023-08-20T10:38:47;102457.56;;;31.08
77599;BMP280;66758;52.078;5.070;2023-08-20T10:41:14;102466.81;;;31.48
77599;BMP280;66758;52.078;5.070;2023-08-20T10:43:48;102472.03;;;29.24
77599;BMP280;66758;52.078;5.070;2023-08-20T10:49:00;102457.66;;;28.68
77599;BMP280;66758;52.078;5.070;2023-08-20T10:51:34;102464.19;;;30.22
77599;BMP280;66758;52.078;5.070;2023-08-20T10:56:40;102481.78;;;29.82
77599;BMP280;66758;52.078;5.070;2023-08-20T10:59:10;102480.78;;;30.32
77599;BMP280;66758;52.078;5.070;2023-08-20T11:01:38;102485.38;;;29.49
77599;BMP280;66758;52.078;5.070;2023-08-20T11:04:04;102486.13;;;29.62
77599;BMP280;66758;52.078;5.070;2023-08-20T11:06:32;102488.03;;;28.64
77599;BMP280;66758;52.078;5.070;2023-08-20T11:08:58;102485.03;;;28.96
77599;BMP280;66758;52.078;5.070;2023-08-20T11:11:24;102484.41;;;29.77
77599;BMP280;66758;52.078;5.070;2023-08-20T11:13:50;102480.00;;;31.42
77599;BMP280;66758;52.078;5.070;2023-08-20T11:16:15;102495.69;;;28.76
77599;BMP280;66758;52.078;5.070;2023-08-20T11:18:41;102489.84;;;28.13
77599;BMP280;66758;52.078;5.070;2023-08-20T11:21:07;102481.00;;;27.50
77599;BMP280;66758;52.078;5.070;2023-08-20T11:23:33;102477.66;;;27.87
77599;BMP280;66758;52.078;5.070;2023-08-20T11:25:59;102472.50;;;27.98
77599;BMP280;66758;52.078;5.070;2023-08-20T11:28:28;102471.63;;;30.50
77599;BMP280;66758;52.078;5.070;2023-08-20T11:30:54;102485.53;;;31.55
77599;BMP280;66758;52.078;5.070;2023-08-20T11:33:21;102483.34;;;29.24
77599;BMP280;66758;52.078;5.070;2023-08-20T11:35:47;102481.66;;;28.18
77599;BMP280;66758;52.078;5.070;2023-08-20T11:38:13;102479.28;;;31.11
77599;BMP280;66758;52.078;5.070;2023-08-20T11:40:39;102476.72;;;29.65
77599;BMP280;66758;52.078;5.070;2023-08-20T11:43:05;102487.63;;;31.72
77599;BMP280;66758;52.078;5.070;2023-08-20T11:45:31;102473.56;;;31.87
77599;BMP280;66758;52.078;5.070;2023-08-20T11:47:58;102479.94;;;29.54
77599;BMP280;66758;52.078;5.070;2023-08-20T11:50:24;102470.19;;;27.12
77599;BMP280;66758;52.078;5.070;2023-08-20T11:52:52;102465.88;;;28.21
77599;BMP280;66758;52.078;5.070;2023-08-20T11:55:22;102464.03;;;31.17
77599;BMP280;66758;52.078;5.070;2023-08-20T11:57:52;102471.97;;;32.31
77599;BMP280;66758;52.078;5.070;2023-08-20T12:00:25;102470.41;;;27.38
77599;BMP280;66758;52.078;5.070;2023-08-20T12:02:55;102466.28;;;27.42
77599;BMP280;66758;52.078;5.070;2023-08-20T12:05:21;102461.84;;;30.20
77599;BMP280;66758;52.078;5.070;2023-08-20T12:07:58;102470.53;;;31.36
77599;BMP280;66758;52.078;5.070;2023-08-20T12:10:24;102463.84;;;28.21
77599;BMP280;66758;52.078;5.070;2023-08-20T12:12:50;102460.19;;;30.32
77599;BMP280;66758;52.078;5.070;2023-08-20T12:15:17;102463.22;;;29.22
77599;BMP280;66758;52.078;5.070;2023-08-20T12:17:54;102464.47;;;28.96
77599;BMP280;66758;52.078;5.070;2023-08-20T12:20:19;102484.91;;;29.25
77599;BMP280;66758;52.078;5.070;2023-08-20T12:22:45;102486.16;;;29.36
77599;BMP280;66758;52.078;5.070;2023-08-20T12:25:10;102484.78;;;28.78
77599;BMP280;66758;52.078;5.070;2023-08-20T12:27:37;102481.28;;;28.86
77599;BMP280;66758;52.078;5.070;2023-08-20T12:30:03;102475.25;;;28.02
77599;BMP280;66758;52.078;5.070;2023-08-20T12:32:28;102481.16;;;28.36
77599;BMP280;66758;52.078;5.070;2023-08-20T12:34:54;102472.25;;;29.55
77599;BMP280;66758;52.078;5.070;2023-08-20T12:37:19;102489.19;;;32.01
77599;BMP280;66758;52.078;5.070;2023-08-20T12:39:45;102489.63;;;31.63
77599;BMP280;66758;52.078;5.070;2023-08-20T12:42:10;102483.00;;;31.48
77599;BMP280;66758;52.078;5.070;2023-08-20T12:44:36;102478.41;;;30.52
77599;BMP280;66758;52.078;5.070;2023-08-20T12:47:01;102485.66;;;30.84
77599;BMP280;66758;52.078;5.070;2023-08-20T12:49:27;102492.44;;;28.36
77599;BMP280;66758;52.078;5.070;2023-08-20T12:51:52;102480.44;;;27.39
77599;BMP280;66758;52.078;5.070;2023-08-20T12:54:17;102470.13;;;29.08
77599;BMP280;66758;52.078;5.070;2023-08-20T12:56:43;102470.34;;;29.01
77599;BMP280;66758;52.078;5.070;2023-08-20T12:59:09;102477.66;;;28.86
77599;BMP280;66758;52.078;5.070;2023-08-20T13:01:34;102460.41;;;28.84
77599;BMP280;66758;52.078;5.070;2023-08-20T13:04:00;102475.00;;;29.08
77599;BMP280;66758;52.078;5.070;2023-08-20T13:06:26;102478.25;;;29.91
77599;BMP280;66758;52.078;5.070;2023-08-20T13:08:51;102474.78;;;30.30
77599;BMP280;66758;52.078;5.070;2023-08-20T13:11:20;102474.34;;;30.32
77599;BMP280;66758;52.078;5.070;2023-08-20T13:13:47;102468.84;;;29.60
77599;BMP280;66758;52.078;5.070;2023-08-20T13:16:12;102476.25;;;32.09
77599;BMP280;66758;52.078;5.070;2023-08-20T13:18:38;102477.34;;;33.04
77599;BMP280;66758;52.078;5.070;2023-08-20T13:21:04;102470.94;;;32.94
77599;BMP280;66758;52.078;5.070;2023-08-20T13:23:29;102470.84;;;32.38
77599;BMP280;66758;52.078;5.070;2023-08-20T13:25:55;102469.19;;;33.21
77599;BMP280;66758;52.078;5.070;2023-08-20T13:28:20;102476.59;;;32.02
77599;BMP280;66758;52.078;5.070;2023-08-20T13:30:46;102459.78;;;33.77
77599;BMP280;66758;52.078;5.070;2023-08-20T13:33:13;102463.97;;;29.60
77599;BMP280;66758;52.078;5.070;2023-08-20T13:35:38;102457.22;;;29.58
77599;BMP280;66758;52.078;5.070;2023-08-20T13:38:04;102458.28;;;29.73
77599;BMP280;66758;52.078;5.070;2023-08-20T13:40:30;102449.63;;;27.48
77599;BMP280;66758;52.078;5.070;2023-08-20T13:42:55;102429.22;;;27.28
77599;BMP280;66758;52.078;5.070;2023-08-20T13:45:21;102406.88;;;26.29
77599;BMP280;66758;52.078;5.070;2023-08-20T13:47:46;102400.13;;;26.03
77599;BMP280;66758;52.078;5.070;2023-08-20T13:50:11;102401.28;;;25.86
77599;BMP280;66758;52.078;5.070;2023-08-20T13:52:37;102396.31;;;25.71
77599;BMP280;66758;52.078;5.070;2023-08-20T13:55:02;102403.09;;;25.73
77599;BMP280;66758;52.078;5.070;2023-08-20T13:57:28;102414.94;;;25.61
77599;BMP280;66758;52.078;5.070;2023-08-20T13:59:54;102440.13;;;27.09
77599;BMP280;66758;52.078;5.070;2023-08-20T14:02:20;102419.31;;;26.28
77599;BMP280;66758;52.078;5.070;2023-08-20T14:04:45;102441.47;;;27.37
77599;BMP280;66758;52.078;5.070;2023-08-20T14:07:11;102432.09;;;26.33
77599;BMP280;66758;52.078;5.070;2023-08-20T14:09:36;102440.13;;;27.58